sensor_id;sensor_type;location;lat;lon;timestamp;P1;durP1;ratioP1;P2;durP2;ratioP2
43646;SDS011;56152;49.996;18.980;2022-07-29T00:02:59;10.73;;;7.20;;
43646;SDS011;56152;49.996;18.980;2022-07-29T00:08:01;12.60;;;7.00;;
43646;SDS011;56152;49.996;18.980;2022-07-29T00:18:29;8.70;;;5.95;;
43646;SDS011;56152;49.996;18.980;2022-07-29T00:29:09;10.23;;;6.22;;
43646;SDS011;56152;49.996;18.980;2022-07-29T00:34:12;9.68;;;5.30;;
43646;SDS011;56152;49.996;18.980;2022-07-29T00:39:28;13.23;;;7.15;;
43646;SDS011;56152;49.996;18.980;2022-07-29T00:44:30;9.65;;;5.80;;
43646;SDS011;56152;49.996;18.980;2022-07-29T00:49:39;9.43;;;5.60;;
43646;SDS011;56152;49.996;18.980;2022-07-29T01:00:15;11.80;;;5.68;;
43646;SDS011;56152;49.996;18.980;2022-07-29T01:05:22;7.53;;;5.47;;
43646;SDS011;56152;49.996;18.980;2022-07-29T01:10:27;6.85;;;5.25;;
43646;SDS011;56152;49.996;18.980;2022-07-29T01:21:11;7.65;;;6.55;;
43646;SDS011;56152;49.996;18.980;2022-07-29T01:26:33;8.77;;;5.57;;
43646;SDS011;56152;49.996;18.980;2022-07-29T01:31:54;11.95;;;5.78;;
43646;SDS011;56152;49.996;18.980;2022-07-29T01:37:01;8.68;;;4.95;;
43646;SDS011;56152;49.996;18.980;2022-07-29T01:42:20;6.55;;;5.07;;
43646;SDS011;56152;49.996;18.980;2022-07-29T01:47:46;7.30;;;4.57;;
43646;SDS011;56152;49.996;18.980;2022-07-29T01:52:58;8.68;;;4.43;;
43646;SDS011;56152;49.996;18.980;2022-07-29T01:58:03;8.13;;;4.75;;
43646;SDS011;56152;49.996;18.980;2022-07-29T02:03:09;8.65;;;4.22;;
43646;SDS011;56152;49.996;18.980;2022-07-29T02:08:14;7.40;;;4.38;;
43646;SDS011;56152;49.996;18.980;2022-07-29T02:13:34;7.57;;;4.18;;
43646;SDS011;56152;49.996;18.980;2022-07-29T02:18:40;6.45;;;3.70;;
43646;SDS011;56152;49.996;18.980;2022-07-29T02:23:44;9.15;;;4.47;;
43646;SDS011;56152;49.996;18.980;2022-07-29T02:29:01;8.55;;;4.28;;
43646;SDS011;56152;49.996;18.980;2022-07-29T02:34:08;8.02;;;4.10;;
43646;SDS011;56152;49.996;18.980;2022-07-29T02:39:11;16.30;;;5.25;;
43646;SDS011;56152;49.996;18.980;2022-07-29T02:49:54;6.70;;;4.47;;
43646;SDS011;56152;49.996;18.980;2022-07-29T02:55:06;6.88;;;4.15;;
43646;SDS011;56152;49.996;18.980;2022-07-29T03:00:18;8.43;;;4.72;;
43646;SDS011;56152;49.996;18.980;2022-07-29T03:10:33;7.70;;;4.60;;
43646;SDS011;56152;49.996;18.980;2022-07-29T03:15:48;11.32;;;4.45;;
43646;SDS011;56152;49.996;18.980;2022-07-29T03:20:52;8.90;;;4.28;;
43646;SDS011;56152;49.996;18.980;2022-07-29T03:31:35;7.30;;;3.75;;
43646;SDS011;56152;49.996;18.980;2022-07-29T03:36:50;8.43;;;4.00;;
43646;SDS011;56152;49.996;18.980;2022-07-29T03:41:53;6.05;;;4.03;;
43646;SDS011;56152;49.996;18.980;2022-07-29T03:47:00;9.63;;;4.30;;
43646;SDS011;56152;49.996;18.980;2022-07-29T03:52:06;8.63;;;3.72;;
43646;SDS011;56152;49.996;18.980;2022-07-29T03:57:11;12.13;;;4.40;;
43646;SDS011;56152;49.996;18.980;2022-07-29T04:02:32;11.68;;;4.38;;
43646;SDS011;56152;49.996;18.980;2022-07-29T04:07:50;9.45;;;4.47;;
43646;SDS011;56152;49.996;18.980;2022-07-29T04:12:51;10.05;;;4.07;;
43646;SDS011;56152;49.996;18.980;2022-07-29T04:17:53;4.90;;;3.28;;
43646;SDS011;56152;49.996;18.980;2022-07-29T04:22:57;7.82;;;3.85;;
43646;SDS011;56152;49.996;18.980;2022-07-29T04:28:06;9.23;;;3.38;;
43646;SDS011;56152;49.996;18.980;2022-07-29T04:33:09;9.95;;;4.28;;
43646;SDS011;56152;49.996;18.980;2022-07-29T04:38:12;7.07;;;3.97;;
43646;SDS011;56152;49.996;18.980;2022-07-29T04:43:14;8.82;;;3.70;;
43646;SDS011;56152;49.996;18.980;2022-07-29T04:48:17;9.60;;;3.70;;
43646;SDS011;56152;49.996;18.980;2022-07-29T04:53:20;9.77;;;3.83;;
43646;SDS011;56152;49.996;18.980;2022-07-29T04:58:22;8.52;;;4.10;;
43646;SDS011;56152;49.996;18.980;2022-07-29T05:03:24;8.85;;;3.42;;
43646;SDS011;56152;49.996;18.980;2022-07-29T05:08:27;7.50;;;3.67;;
43646;SDS011;56152;49.996;18.980;2022-07-29T05:13:29;5.90;;;3.38;;
43646;SDS011;56152;49.996;18.980;2022-07-29T05:18:34;7.32;;;3.10;;
43646;SDS011;56152;49.996;18.980;2022-07-29T05:23:41;10.43;;;3.33;;
43646;SDS011;56152;49.996;18.980;2022-07-29T05:28:43;8.48;;;3.53;;
43646;SDS011;56152;49.996;18.980;2022-07-29T05:33:51;7.47;;;3.92;;
43646;SDS011;56152;49.996;18.980;2022-07-29T05:38:55;8.60;;;3.97;;
43646;SDS011;56152;49.996;18.980;2022-07-29T05:43:57;7.00;;;4.13;;
43646;SDS011;56152;49.996;18.980;2022-07-29T05:49:00;6.30;;;3.30;;
43646;SDS011;56152;49.996;18.980;2022-07-29T05:54:04;6.82;;;2.90;;
43646;SDS011;56152;49.996;18.980;2022-07-29T05:59:06;6.35;;;3.40;;
43646;SDS011;56152;49.996;18.980;2022-07-29T06:04:08;11.07;;;3.72;;
43646;SDS011;56152;49.996;18.980;2022-07-29T06:09:11;11.07;;;3.30;;
43646;SDS011;56152;49.996;18.980;2022-07-29T06:14:15;10.43;;;3.67;;
43646;SDS011;56152;49.996;18.980;2022-07-29T06:19:22;7.47;;;3.28;;
43646;SDS011;56152;49.996;18.980;2022-07-29T06:24:30;8.63;;;3.35;;
43646;SDS011;56152;49.996;18.980;2022-07-29T06:29:33;7.47;;;3.75;;
43646;SDS011;56152;49.996;18.980;2022-07-29T06:34:37;7.82;;;3.72;;
43646;SDS011;56152;49.996;18.980;2022-07-29T06:39:49;4.95;;;2.90;;
43646;SDS011;56152;49.996;18.980;2022-07-29T06:45:12;4.38;;;3.05;;
43646;SDS011;56152;49.996;18.980;2022-07-29T06:50:14;9.98;;;3.63;;
43646;SDS011;56152;49.996;18.980;2022-07-29T06:55:21;8.93;;;4.25;;
43646;SDS011;56152;49.996;18.980;2022-07-29T07:00:26;6.45;;;3.65;;
43646;SDS011;56152;49.996;18.980;2022-07-29T07:05:30;9.00;;;3.30;;
43646;SDS011;56152;49.996;18.980;2022-07-29T07:10:37;11.60;;;3.43;;
43646;SDS011;56152;49.996;18.980;2022-07-29T07:15:40;8.02;;;3.63;;
43646;SDS011;56152;49.996;18.980;2022-07-29T07:20:42;10.82;;;4.25;;
43646;SDS011;56152;49.996;18.980;2022-07-29T07:25:47;10.27;;;3.58;;
43646;SDS011;56152;49.996;18.980;2022-07-29T07:30:49;8.27;;;3.45;;
43646;SDS011;56152;49.996;18.980;2022-07-29T07:35:51;5.68;;;3.15;;
43646;SDS011;56152;49.996;18.980;2022-07-29T07:40:55;12.43;;;3.70;;
43646;SDS011;56152;49.996;18.980;2022-07-29T07:46:00;5.93;;;3.63;;
43646;SDS011;56152;49.996;18.980;2022-07-29T07:51:02;12.85;;;3.40;;
43646;SDS011;56152;49.996;18.980;2022-07-29T07:56:06;7.85;;;3.58;;
43646;SDS011;56152;49.996;18.980;2022-07-29T08:01:08;9.52;;;3.50;;
43646;SDS011;56152;49.996;18.980;2022-07-29T08:06:11;7.47;;;3.13;;
43646;SDS011;56152;49.996;18.980;2022-07-29T08:11:14;15.88;;;3.45;;
43646;SDS011;56152;49.996;18.980;2022-07-29T08:16:18;6.78;;;3.95;;
43646;SDS011;56152;49.996;18.980;2022-07-29T08:21:20;9.32;;;3.55;;
43646;SDS011;56152;49.996;18.980;2022-07-29T08:26:25;4.45;;;2.80;;
43646;SDS011;56152;49.996;18.980;2022-07-29T08:31:30;34.83;;;4.70;;
43646;SDS011;56152;49.996;18.980;2022-07-29T08:36:32;10.93;;;3.35;;
43646;SDS011;56152;49.996;18.980;2022-07-29T08:41:36;6.93;;;2.60;;
43646;SDS011;56152;49.996;18.980;2022-07-29T08:46:38;4.25;;;2.95;;
43646;SDS011;56152;49.996;18.980;2022-07-29T08:51:40;5.38;;;2.70;;
43646;SDS011;56152;49.996;18.980;2022-07-29T08:56:43;7.80;;;3.15;;
43646;SDS011;56152;49.996;18.980;2022-07-29T09:01:50;9.18;;;3.47;;
43646;SDS011;56152;49.996;18.980;2022-07-29T09:06:54;3.85;;;2.65;;
43646;SDS011;56152;49.996;18.980;2022-07-29T09:12:02;6.22;;;3.00;;
43646;SDS011;56152;49.996;18.980;2022-07-29T09:17:06;5.22;;;3.75;;
43646;SDS011;56152;49.996;18.980;2022-07-29T09:22:09;8.48;;;4.05;;
43646;SDS011;56152;49.996;18.980;2022-07-29T09:27:21;8.27;;;3.30;;
43646;SDS011;56152;49.996;18.980;2022-07-29T09:32:26;6.07;;;3.13;;
43646;SDS011;56152;49.996;18.980;2022-07-29T09:37:28;8.48;;;3.10;;
43646;SDS011;56152;49.996;18.980;2022-07-29T09:42:32;11.23;;;3.70;;
43646;SDS011;56152;49.996;18.980;2022-07-29T09:47:41;7.07;;;3.55;;
43646;SDS011;56152;49.996;18.980;2022-07-29T09:52:48;4.43;;;3.10;;
43646;SDS011;56152;49.996;18.980;2022-07-29T09:57:52;7.20;;;3.28;;
43646;SDS011;56152;49.996;18.980;2022-07-29T10:02:55;6.40;;;3.50;;
43646;SDS011;56152;49.996;18.980;2022-07-29T10:08:02;4.53;;;3.00;;
43646;SDS011;56152;49.996;18.980;2022-07-29T10:13:08;5.10;;;3.30;;
43646;SDS011;56152;49.996;18.980;2022-07-29T10:18:12;6.57;;;3.70;;
43646;SDS011;56152;49.996;18.980;2022-07-29T10:23:17;12.75;;;4.18;;
43646;SDS011;56152;49.996;18.980;2022-07-29T10:28:24;10.50;;;3.67;;
43646;SDS011;56152;49.996;18.980;2022-07-29T10:33:32;5.95;;;3.40;;
43646;SDS011;56152;49.996;18.980;2022-07-29T10:38:51;5.68;;;2.90;;
43646;SDS011;56152;49.996;18.980;2022-07-29T10:44:14;7.78;;;3.70;;
43646;SDS011;56152;49.996;18.980;2022-07-29T10:49:20;11.73;;;3.85;;
43646;SDS011;56152;49.996;18.980;2022-07-29T10:59:49;10.02;;;3.05;;
43646;SDS011;56152;49.996;18.980;2022-07-29T11:04:58;8.60;;;3.55;;
43646;SDS011;56152;49.996;18.980;2022-07-29T11:10:19;11.93;;;3.45;;
43646;SDS011;56152;49.996;18.980;2022-07-29T11:15:24;7.78;;;3.17;;
43646;SDS011;56152;49.996;18.980;2022-07-29T11:20:38;8.38;;;3.40;;
43646;SDS011;56152;49.996;18.980;2022-07-29T11:25:42;6.90;;;3.33;;
43646;SDS011;56152;49.996;18.980;2022-07-29T11:30:49;4.50;;;2.90;;
43646;SDS011;56152;49.996;18.980;2022-07-29T11:36:09;3.97;;;2.80;;
43646;SDS011;56152;49.996;18.980;2022-07-29T11:41:21;9.27;;;3.30;;
43646;SDS011;56152;49.996;18.980;2022-07-29T11:46:46;9.05;;;3.10;;
43646;SDS011;56152;49.996;18.980;2022-07-29T11:51:53;8.43;;;2.95;;
43646;SDS011;56152;49.996;18.980;2022-07-29T11:56:56;6.32;;;2.90;;
43646;SDS011;56152;49.996;18.980;2022-07-29T12:02:03;5.15;;;3.05;;
43646;SDS011;56152;49.996;18.980;2022-07-29T12:07:05;7.38;;;3.40;;
43646;SDS011;56152;49.996;18.980;2022-07-29T12:12:18;7.45;;;3.17;;
43646;SDS011;56152;49.996;18.980;2022-07-29T12:17:38;3.83;;;2.50;;
43646;SDS011;56152;49.996;18.980;2022-07-29T12:22:42;4.65;;;3.10;;
43646;SDS011;56152;49.996;18.980;2022-07-29T12:27:45;4.25;;;2.80;;
43646;SDS011;56152;49.996;18.980;2022-07-29T12:32:49;7.30;;;3.63;;
43646;SDS011;56152;49.996;18.980;2022-07-29T12:37:51;7.40;;;2.35;;
43646;SDS011;56152;49.996;18.980;2022-07-29T12:43:10;12.82;;;2.85;;
43646;SDS011;56152;49.996;18.980;2022-07-29T12:48:31;7.38;;;2.58;;
43646;SDS011;56152;49.996;18.980;2022-07-29T12:53:35;6.20;;;3.50;;
43646;SDS011;56152;49.996;18.980;2022-07-29T12:58:38;4.07;;;2.47;;
43646;SDS011;56152;49.996;18.980;2022-07-29T13:03:45;3.92;;;2.60;;
43646;SDS011;56152;49.996;18.980;2022-07-29T13:08:58;6.65;;;2.88;;
43646;SDS011;56152;49.996;18.980;2022-07-29T13:14:01;6.55;;;2.97;;
43646;SDS011;56152;49.996;18.980;2022-07-29T13:19:06;4.60;;;2.80;;
43646;SDS011;56152;49.996;18.980;2022-07-29T13:24:10;4.75;;;2.67;;
43646;SDS011;56152;49.996;18.980;2022-07-29T13:29:16;6.25;;;2.72;;
43646;SDS011;56152;49.996;18.980;2022-07-29T13:34:19;7.57;;;3.17;;
43646;SDS011;56152;49.996;18.980;2022-07-29T13:39:25;5.82;;;3.08;;
43646;SDS011;56152;49.996;18.980;2022-07-29T13:44:27;4.68;;;2.40;;
43646;SDS011;56152;49.996;18.980;2022-07-29T13:49:30;11.02;;;2.88;;
43646;SDS011;56152;49.996;18.980;2022-07-29T13:54:32;7.25;;;2.90;;
43646;SDS011;56152;49.996;18.980;2022-07-29T13:59:37;4.72;;;2.65;;
43646;SDS011;56152;49.996;18.980;2022-07-29T14:04:45;6.72;;;2.70;;
43646;SDS011;56152;49.996;18.980;2022-07-29T14:09:47;7.63;;;2.88;;
43646;SDS011;56152;49.996;18.980;2022-07-29T14:14:48;6.30;;;2.95;;
43646;SDS011;56152;49.996;18.980;2022-07-29T14:19:52;10.85;;;3.05;;
43646;SDS011;56152;49.996;18.980;2022-07-29T14:24:54;9.07;;;3.28;;
43646;SDS011;56152;49.996;18.980;2022-07-29T14:29:57;7.63;;;2.53;;
43646;SDS011;56152;49.996;18.980;2022-07-29T14:35:01;3.80;;;2.78;;
43646;SDS011;56152;49.996;18.980;2022-07-29T14:40:03;7.15;;;3.10;;
43646;SDS011;56152;49.996;18.980;2022-07-29T14:45:07;8.25;;;2.92;;
43646;SDS011;56152;49.996;18.980;2022-07-29T14:50:11;3.78;;;2.53;;
43646;SDS011;56152;49.996;18.980;2022-07-29T14:55:13;8.57;;;3.55;;
43646;SDS011;56152;49.996;18.980;2022-07-29T15:00:16;3.70;;;2.33;;
43646;SDS011;56152;49.996;18.980;2022-07-29T15:05:20;4.65;;;2.72;;
43646;SDS011;56152;49.996;18.980;2022-07-29T15:10:23;8.45;;;2.65;;
43646;SDS011;56152;49.996;18.980;2022-07-29T15:15:26;6.13;;;2.65;;
43646;SDS011;56152;49.996;18.980;2022-07-29T15:20:33;5.00;;;2.80;;
43646;SDS011;56152;49.996;18.980;2022-07-29T20:14:06;9.75;;;5.97;;
43646;SDS011;56152;49.996;18.980;2022-07-29T20:19:08;5.80;;;4.88;;
43646;SDS011;56152;49.996;18.980;2022-07-29T20:24:12;8.38;;;6.18;;
43646;SDS011;56152;49.996;18.980;2022-07-29T20:29:13;10.85;;;6.47;;
43646;SDS011;56152;49.996;18.980;2022-07-29T20:34:16;7.00;;;6.05;;
43646;SDS011;56152;49.996;18.980;2022-07-29T20:39:20;9.38;;;7.00;;
43646;SDS011;56152;49.996;18.980;2022-07-29T20:44:22;10.07;;;6.70;;
43646;SDS011;56152;49.996;18.980;2022-07-29T20:49:24;9.20;;;7.18;;
43646;SDS011;56152;49.996;18.980;2022-07-29T20:54:27;7.93;;;7.10;;
43646;SDS011;56152;49.996;18.980;2022-07-29T20:59:30;9.63;;;7.03;;
43646;SDS011;56152;49.996;18.980;2022-07-29T21:04:33;9.23;;;6.88;;
43646;SDS011;56152;49.996;18.980;2022-07-29T21:09:38;9.70;;;7.05;;
43646;SDS011;56152;49.996;18.980;2022-07-29T21:14:39;11.85;;;7.20;;
43646;SDS011;56152;49.996;18.980;2022-07-29T21:19:49;11.57;;;7.32;;
43646;SDS011;56152;49.996;18.980;2022-07-29T21:24:53;9.98;;;6.57;;
43646;SDS011;56152;49.996;18.980;2022-07-29T21:30:00;8.57;;;6.05;;
43646;SDS011;56152;49.996;18.980;2022-07-29T21:35:02;8.70;;;6.50;;
43646;SDS011;56152;49.996;18.980;2022-07-29T21:40:07;7.80;;;6.25;;
43646;SDS011;56152;49.996;18.980;2022-07-29T21:45:10;7.93;;;5.80;;
43646;SDS011;56152;49.996;18.980;2022-07-29T21:50:12;8.98;;;6.60;;
43646;SDS011;56152;49.996;18.980;2022-07-29T21:55:15;8.02;;;5.88;;
43646;SDS011;56152;49.996;18.980;2022-07-29T22:00:17;7.97;;;6.88;;
43646;SDS011;56152;49.996;18.980;2022-07-29T22:05:25;9.35;;;6.18;;
43646;SDS011;56152;49.996;18.980;2022-07-29T22:10:29;7.68;;;5.78;;
43646;SDS011;56152;49.996;18.980;2022-07-29T22:15:32;11.02;;;5.85;;
43646;SDS011;56152;49.996;18.980;2022-07-29T22:20:34;6.40;;;4.82;;
43646;SDS011;56152;49.996;18.980;2022-07-29T22:25:37;14.48;;;6.47;;
43646;SDS011;56152;49.996;18.980;2022-07-29T22:30:39;7.30;;;5.18;;
43646;SDS011;56152;49.996;18.980;2022-07-29T22:35:41;6.70;;;5.63;;
43646;SDS011;56152;49.996;18.980;2022-07-29T22:40:47;7.55;;;5.10;;
43646;SDS011;56152;49.996;18.980;2022-07-29T22:45:50;8.07;;;5.55;;
43646;SDS011;56152;49.996;18.980;2022-07-29T22:50:54;7.68;;;5.18;;
43646;SDS011;56152;49.996;18.980;2022-07-29T22:55:57;10.35;;;6.47;;
43646;SDS011;56152;49.996;18.980;2022-07-29T23:01:02;6.78;;;5.03;;
43646;SDS011;56152;49.996;18.980;2022-07-29T23:06:04;9.18;;;6.00;;
43646;SDS011;56152;49.996;18.980;2022-07-29T23:11:07;9.63;;;5.18;;
43646;SDS011;56152;49.996;18.980;2022-07-29T23:16:09;6.13;;;3.90;;
43646;SDS011;56152;49.996;18.980;2022-07-29T23:21:11;8.05;;;4.75;;
43646;SDS011;56152;49.996;18.980;2022-07-29T23:26:17;7.00;;;4.85;;
43646;SDS011;56152;49.996;18.980;2022-07-29T23:31:19;8.18;;;4.78;;
43646;SDS011;56152;49.996;18.980;2022-07-29T23:36:24;6.90;;;4.55;;
43646;SDS011;56152;49.996;18.980;2022-07-29T23:41:31;6.70;;;4.55;;
43646;SDS011;56152;49.996;18.980;2022-07-29T23:46:33;5.57;;;4.72;;
43646;SDS011;56152;49.996;18.980;2022-07-29T23:51:35;5.38;;;4.35;;
43646;SDS011;56152;49.996;18.980;2022-07-29T23:56:39;6.47;;;4.65;;
